Time;durP1;ratioP1;P1;durP2;ratioP2;P2;SDS_P1;SDS_P2;PMS_P1;PMS_P2;Temp;Humidity;BMP_temperature;BMP_pressure;BME280_temperature;BME280_humidity;BME280_pressure;Samples;Min_cycle;Max_cycle;Signal;HPM_P1;HPM_P2
2022/01/03 00:00:19;;;;;;;17.27;2.83;;;8.60;99.90;;;;;;5075924;28;20051;-71
2022/01/03 00:02:46;;;;;;;8.23;2.75;;;8.60;99.90;;;;;;5077337;28;20297;-71
2022/01/03 00:05:12;;;;;;;6.55;2.20;;;8.60;99.90;;;;;;5075076;28;20047;-71
2022/01/03 00:07:40;;;;;;;7.55;4.25;;;8.60;99.90;;;;;;5076364;28;20043;-71
2022/01/03 00:10:08;;;;;;;8.50;2.60;;;8.60;99.90;;;;;;5073514;28;20603;-71
2022/01/03 00:12:34;;;;;;;12.50;3.85;;;8.60;99.90;;;;;;5076167;28;20051;-71
2022/01/03 00:15:00;;;;;;;11.25;4.15;;;8.60;99.90;;;;;;5072594;28;20484;-71
2022/01/03 00:17:26;;;;;;;15.35;3.78;;;8.60;99.90;;;;;;5061169;28;20332;-71
2022/01/03 00:19:52;;;;;;;10.40;3.63;;;8.60;99.90;;;;;;5076022;28;20044;-72
2022/01/03 00:22:22;;;;;;;17.00;4.43;;;8.60;99.90;;;;;;5075384;28;20050;-71
2022/01/03 00:25:06;;;;;;;14.30;4.00;;;8.60;99.90;;;;;;5078959;28;20036;-71
2022/01/03 00:27:42;;;;;;;13.90;3.75;;;8.60;99.90;;;;;;5071936;28;20531;-71
2022/01/03 00:30:09;;;;;;;10.80;3.88;;;8.60;99.90;;;;;;5075603;28;20073;-71
2022/01/03 00:32:37;;;;;;;24.33;5.15;;;8.50;99.90;;;;;;5076979;28;20050;-71
2022/01/03 00:35:04;;;;;;;13.32;4.05;;;8.50;99.90;;;;;;5089160;28;20043;-71
2022/01/03 00:37:32;;;;;;;14.45;4.72;;;8.50;99.90;;;;;;5075951;28;20044;-72
2022/01/03 00:40:00;;;;;;;19.40;5.90;;;8.60;99.90;;;;;;5074528;28;20542;-71
2022/01/03 00:42:26;;;;;;;13.82;4.70;;;8.50;99.90;;;;;;5091625;28;20109;-71
2022/01/03 00:44:53;;;;;;;14.13;4.32;;;8.50;99.90;;;;;;5078127;28;20040;-71
2022/01/03 00:47:19;;;;;;;22.05;4.55;;;8.50;99.90;;;;;;5092233;28;20044;-71
2022/01/03 00:49:46;;;;;;;13.88;4.93;;;8.50;99.90;;;;;;5076689;28;20044;-71
2022/01/03 00:52:12;;;;;;;24.38;6.35;;;8.50;99.90;;;;;;5073245;28;20342;-71
2022/01/03 00:54:38;;;;;;;17.95;6.75;;;8.50;99.90;;;;;;5074666;28;20040;-72
2022/01/03 00:57:13;;;;;;;19.02;5.90;;;8.50;99.90;;;;;;5073326;28;20109;-71
2022/01/03 00:59:59;;;;;;;24.60;7.22;;;8.50;99.90;;;;;;5073633;28;20063;-72
2022/01/03 01:02:28;;;;;;;18.55;5.30;;;8.50;99.90;;;;;;5078292;28;20047;-71
2022/01/03 01:04:55;;;;;;;15.88;5.65;;;8.50;99.90;;;;;;5074762;28;20448;-72
2022/01/03 01:07:23;;;;;;;18.85;5.57;;;8.50;99.90;;;;;;5075991;28;20032;-71
2022/01/03 01:09:51;;;;;;;25.13;6.05;;;8.50;99.90;;;;;;5090137;28;20653;-70
2022/01/03 01:12:18;;;;;;;28.83;6.95;;;8.50;99.90;;;;;;5056890;28;20503;-71
2022/01/03 01:14:45;;;;;;;22.67;7.03;;;8.60;99.90;;;;;;5076207;28;20071;-71
2022/01/03 01:17:11;;;;;;;15.02;5.15;;;8.60;99.90;;;;;;5072086;28;20040;-71
2022/01/03 01:19:37;;;;;;;17.88;5.95;;;8.60;99.90;;;;;;5076080;28;20043;-71
2022/01/03 01:22:03;;;;;;;15.75;5.85;;;8.60;99.90;;;;;;5086866;28;20068;-71
2022/01/03 01:24:34;;;;;;;19.58;6.50;;;8.60;99.90;;;;;;5074661;28;20139;-71
2022/01/03 01:29:44;;;;;;;17.60;5.85;;;8.70;99.90;;;;;;5071738;28;20660;-71
2022/01/03 01:32:14;;;;;;;17.50;5.38;;;8.70;99.90;;;;;;5075177;28;20041;-71
2022/01/03 01:34:43;;;;;;;21.77;6.07;;;8.70;99.90;;;;;;5075541;28;20044;-71
2022/01/03 01:37:09;;;;;;;18.02;5.38;;;8.70;99.90;;;;;;5057440;28;20044;-71
2022/01/03 01:39:36;;;;;;;22.17;5.55;;;8.80;99.90;;;;;;5059012;28;20079;-73
2022/01/03 01:42:04;;;;;;;15.68;5.53;;;8.80;99.90;;;;;;5075108;28;20032;-71
2022/01/03 01:44:35;;;;;;;21.77;5.68;;;8.80;99.90;;;;;;5079053;28;20438;-71
2022/01/03 01:47:06;;;;;;;20.92;6.15;;;8.80;99.90;;;;;;5079075;28;20041;-71
2022/01/03 01:49:39;;;;;;;21.23;6.35;;;8.80;99.90;;;;;;5078205;28;20081;-71
2022/01/03 01:52:08;;;;;;;;;;;8.90;99.90;;;;;;5081011;28;20447;-71
2022/01/03 01:54:37;;;;;;;20.80;6.82;;;8.90;99.90;;;;;;5075961;28;19924;-71
2022/01/03 01:57:06;;;;;;;14.90;5.50;;;8.80;99.90;;;;;;5077264;28;20067;-71
2022/01/03 01:59:45;;;;;;;27.67;5.35;;;8.80;99.90;;;;;;5078399;28;20048;-71
2022/01/03 02:02:15;;;;;;;29.25;7.30;;;8.80;99.90;;;;;;5078754;28;20044;-71
2022/01/03 02:04:47;;;;;;;19.77;6.60;;;8.80;99.90;;;;;;5080668;28;20048;-71
2022/01/03 02:07:31;;;;;;;15.32;6.20;;;8.80;99.90;;;;;;5075824;28;20040;-71
2022/01/03 02:10:10;;;;;;;25.58;6.13;;;8.80;99.90;;;;;;5077806;28;20039;-71
2022/01/03 02:12:39;;;;;;;25.80;7.45;;;8.80;99.90;;;;;;5079847;28;20048;-71
2022/01/03 02:15:10;;;;;;;27.67;7.90;;;8.80;99.90;;;;;;5074753;28;20075;-71
2022/01/03 02:17:37;;;;;;;19.90;5.88;;;8.70;99.90;;;;;;5096568;28;20052;-71
2022/01/03 02:20:15;;;;;;;18.98;5.57;;;8.70;99.90;;;;;;5076350;28;20044;-71
2022/01/03 02:22:43;;;;;;;14.70;5.32;;;8.70;99.90;;;;;;5075471;28;20048;-71
2022/01/03 02:25:11;;;;;;;17.55;7.00;;;8.70;99.90;;;;;;5077313;28;20043;-71
2022/01/03 02:27:38;;;;;;;22.60;6.68;;;8.70;99.90;;;;;;5072259;28;20036;-70
2022/01/03 02:30:07;;;;;;;23.02;7.25;;;8.70;99.90;;;;;;5072646;28;20858;-71
2022/01/03 02:32:33;;;;;;;21.88;5.95;;;8.70;99.90;;;;;;5077047;28;20104;-71
2022/01/03 02:34:58;;;;;;;20.15;6.40;;;8.70;99.90;;;;;;5075721;28;20883;-71
2022/01/03 02:37:24;;;;;;;23.80;5.97;;;8.70;99.90;;;;;;5076017;28;20040;-71
2022/01/03 02:39:51;;;;;;;24.08;6.45;;;8.70;99.90;;;;;;5074392;28;20093;-71
2022/01/03 02:42:23;;;;;;;28.10;6.45;;;8.60;99.90;;;;;;5097049;28;20047;-71
2022/01/03 02:45:20;;;;;;;22.40;5.95;;;8.60;99.90;;;;;;5078672;28;20036;-71
2022/01/03 02:47:51;;;;;;;22.23;5.85;;;8.60;99.90;;;;;;5035727;28;20083;-71
2022/01/03 02:50:19;;;;;;;23.95;6.45;;;8.60;99.90;;;;;;5096094;28;20052;-71
2022/01/03 02:52:46;;;;;;;21.42;6.82;;;8.60;99.90;;;;;;5076769;28;20047;-71
2022/01/03 02:55:13;;;;;;;19.75;6.97;;;8.60;99.90;;;;;;5079459;28;20028;-71
2022/01/03 02:57:43;;;;;;;20.17;7.53;;;8.50;99.90;;;;;;5080059;28;20052;-71
2022/01/03 03:00:14;;;;;;;25.52;7.30;;;8.50;99.90;;;;;;5076399;28;20582;-71
2022/01/03 03:02:40;;;;;;;26.25;7.20;;;8.50;99.90;;;;;;5081922;28;20051;-71
2022/01/03 03:05:08;;;;;;;24.00;6.78;;;8.50;99.90;;;;;;5078096;28;20405;-71
2022/01/03 03:07:34;;;;;;;25.38;7.00;;;8.60;99.90;;;;;;5078769;28;20126;-71
2022/01/03 03:10:03;;;;;;;27.15;7.90;;;8.50;99.90;;;;;;5079786;28;20040;-71
2022/01/03 03:12:29;;;;;;;23.25;7.32;;;8.50;99.90;;;;;;5075841;28;20120;-71
2022/01/03 03:14:55;;;;;;;28.52;7.47;;;8.50;99.90;;;;;;5082069;28;20097;-71
2022/01/03 03:17:21;;;;;;;18.33;7.18;;;8.50;99.90;;;;;;5081444;28;20032;-71
2022/01/03 03:19:51;;;;;;;27.83;7.35;;;8.50;99.90;;;;;;5077928;28;20397;-71
2022/01/03 03:22:17;;;;;;;21.95;8.65;;;8.50;99.90;;;;;;5081595;28;20047;-71
2022/01/03 03:24:43;;;;;;;23.38;8.73;;;8.50;99.90;;;;;;5075641;28;20045;-71
2022/01/03 03:27:10;;;;;;;20.65;7.03;;;8.50;99.90;;;;;;5080941;28;20043;-71
2022/01/03 03:29:41;;;;;;;29.35;8.02;;;8.50;99.90;;;;;;5062617;28;20050;-71
2022/01/03 03:32:07;;;;;;;32.38;9.23;;;8.50;99.90;;;;;;5077648;28;20090;-71
2022/01/03 03:34:34;;;;;;;16.85;6.18;;;8.50;99.90;;;;;;5082645;28;20043;-71
2022/01/03 03:36:59;;;;;;;20.60;6.90;;;8.50;99.90;;;;;;5075745;28;20378;-71
2022/01/03 03:39:25;;;;;;;20.42;6.05;;;8.50;99.90;;;;;;5078983;28;20088;-71
2022/01/03 03:41:51;;;;;;;25.13;7.78;;;8.50;99.90;;;;;;5079291;28;20047;-71
2022/01/03 03:44:17;;;;;;;23.88;7.22;;;8.50;99.90;;;;;;5076615;28;20575;-71
2022/01/03 03:46:42;;;;;;;20.30;7.38;;;8.50;99.90;;;;;;5063663;28;20059;-71
2022/01/03 03:49:09;;;;;;;27.52;7.53;;;8.50;99.90;;;;;;5078105;28;20036;-71
2022/01/03 03:51:38;;;;;;;21.75;7.22;;;8.50;99.90;;;;;;5079255;28;20036;-71
2022/01/03 03:54:04;;;;;;;20.27;7.97;;;8.50;99.90;;;;;;5077535;28;20062;-71
2022/01/03 03:56:30;;;;;;;16.50;6.88;;;8.50;99.90;;;;;;5059677;28;20043;-71
2022/01/03 03:58:56;;;;;;;21.52;8.10;;;8.60;99.90;;;;;;5079772;28;20052;-71
2022/01/03 04:01:23;;;;;;;25.70;7.20;;;8.60;99.90;;;;;;5078380;28;20062;-71
2022/01/03 04:03:49;;;;;;;31.15;6.65;;;8.60;99.90;;;;;;5079099;28;20533;-71
2022/01/03 04:06:15;;;;;;;19.23;6.45;;;8.50;99.90;;;;;;5065896;28;20130;-72
2022/01/03 04:08:40;;;;;;;22.85;7.70;;;8.50;99.90;;;;;;5075671;28;20056;-71
2022/01/03 04:11:06;;;;;;;25.00;8.10;;;8.50;99.90;;;;;;5077075;28;20650;-71
2022/01/03 04:13:32;;;;;;;31.83;7.07;;;8.50;99.90;;;;;;5075904;28;20036;-71
2022/01/03 04:16:00;;;;;;;17.52;6.22;;;8.50;99.90;;;;;;5076837;28;20043;-71
2022/01/03 04:18:28;;;;;;;23.17;7.63;;;8.40;99.90;;;;;;5081113;28;20048;-71
2022/01/03 04:20:55;;;;;;;22.30;7.40;;;8.40;99.90;;;;;;5076699;28;20528;-71
2022/01/03 04:23:20;;;;;;;21.73;7.18;;;8.40;99.90;;;;;;5083098;28;20165;-71
2022/01/03 04:25:46;;;;;;;30.90;7.05;;;8.30;99.90;;;;;;5074878;28;20087;-71
2022/01/03 04:28:12;;;;;;;20.70;7.03;;;8.30;99.90;;;;;;5075639;28;20625;-71
2022/01/03 04:30:38;;;;;;;18.50;8.23;;;8.30;99.90;;;;;;5079627;28;20039;-71
2022/01/03 04:33:04;;;;;;;24.10;6.60;;;8.30;99.90;;;;;;5057533;28;20632;-71
2022/01/03 04:35:29;;;;;;;27.58;8.18;;;8.30;99.90;;;;;;5081621;28;20035;-71
2022/01/03 04:37:55;;;;;;;31.20;8.57;;;8.30;99.90;;;;;;5075116;28;20051;-71
2022/01/03 04:40:21;;;;;;;22.42;7.30;;;8.30;99.90;;;;;;5078161;28;20041;-71
2022/01/03 04:42:47;;;;;;;32.20;9.93;;;8.30;99.90;;;;;;5080478;28;20095;-71
2022/01/03 04:45:13;;;;;;;20.67;7.10;;;8.30;99.90;;;;;;5077940;28;20039;-71
2022/01/03 04:47:39;;;;;;;15.02;6.05;;;8.30;99.90;;;;;;5079895;28;20126;-71
2022/01/03 04:50:05;;;;;;;27.48;8.13;;;8.30;99.90;;;;;;5060342;28;20474;-71
2022/01/03 04:52:31;;;;;;;18.83;6.30;;;8.30;99.90;;;;;;5080116;28;20040;-71
2022/01/03 04:54:58;;;;;;;29.60;7.80;;;8.20;99.90;;;;;;5078395;28;20546;-71
2022/01/03 04:57:23;;;;;;;19.63;6.35;;;8.30;99.90;;;;;;5072744;28;20419;-71
2022/01/03 04:59:49;;;;;;;28.38;8.00;;;8.20;99.90;;;;;;5078097;28;20089;-71
2022/01/03 05:02:15;;;;;;;27.50;7.35;;;8.20;99.90;;;;;;5075606;28;20493;-71
2022/01/03 05:04:41;;;;;;;20.08;8.35;;;8.20;99.90;;;;;;5078307;28;20224;-71
2022/01/03 05:07:06;;;;;;;28.90;6.95;;;8.20;99.90;;;;;;5078698;28;20040;-71
2022/01/03 05:09:32;;;;;;;23.65;6.75;;;8.30;99.90;;;;;;5073986;28;20037;-71
2022/01/03 05:11:59;;;;;;;22.50;8.48;;;8.20;99.90;;;;;;5078623;28;20040;-71
2022/01/03 05:14:24;;;;;;;32.88;8.27;;;8.20;99.90;;;;;;5079589;28;20035;-71
2022/01/03 05:16:52;;;;;;;26.45;7.63;;;8.20;99.90;;;;;;5045980;28;20040;-71
2022/01/03 05:19:18;;;;;;;22.60;6.63;;;8.20;99.90;;;;;;5083712;28;20591;-71
2022/01/03 05:21:46;;;;;;;24.40;8.82;;;8.20;99.90;;;;;;5080682;28;20048;-71
2022/01/03 05:24:12;;;;;;;24.38;7.75;;;8.20;99.90;;;;;;5080590;28;20157;-71
2022/01/03 05:26:38;;;;;;;29.27;8.63;;;8.30;99.90;;;;;;5082273;28;20127;-71
2022/01/03 05:29:04;;;;;;;27.65;7.68;;;8.30;99.90;;;;;;5079742;28;20193;-71
2022/01/03 05:31:30;;;;;;;19.00;8.43;;;8.30;99.90;;;;;;5082768;28;20059;-71
2022/01/03 05:33:55;;;;;;;32.55;7.53;;;8.30;99.90;;;;;;5077250;28;20036;-71
2022/01/03 05:36:21;;;;;;;28.05;8.85;;;8.20;99.90;;;;;;5082530;28;20035;-71
2022/01/03 05:38:47;;;;;;;27.80;7.95;;;8.30;99.90;;;;;;5081243;28;20068;-71
2022/01/03 05:41:13;;;;;;;25.60;7.90;;;8.30;99.90;;;;;;5080101;28;20468;-71
2022/01/03 05:43:40;;;;;;;17.33;7.90;;;8.30;99.90;;;;;;5082033;28;20047;-71
2022/01/03 05:46:06;;;;;;;35.63;8.90;;;8.30;99.90;;;;;;5079698;28;20036;-72
2022/01/03 05:48:32;;;;;;;28.42;8.18;;;8.30;99.90;;;;;;5080717;28;20051;-71
2022/01/03 05:50:57;;;;;;;37.72;9.32;;;8.30;99.90;;;;;;5080313;28;20544;-71
2022/01/03 05:53:23;;;;;;;21.70;7.22;;;8.30;99.90;;;;;;5061965;28;20608;-71
2022/01/03 05:55:49;;;;;;;27.60;8.68;;;8.30;99.90;;;;;;5081554;28;20465;-71
2022/01/03 05:58:16;;;;;;;27.67;8.32;;;8.30;99.90;;;;;;5077073;28;20372;-71
2022/01/03 06:00:42;;;;;;;25.67;8.23;;;8.30;99.90;;;;;;5078535;28;20048;-71
2022/01/03 06:03:09;;;;;;;26.77;7.85;;;8.30;99.90;;;;;;5079907;28;20040;-71
2022/01/03 06:08:03;;;;;;;29.15;8.63;;;8.30;99.90;;;;;;5080803;28;20064;-71
2022/01/03 06:10:30;;;;;;;31.33;8.35;;;8.30;99.90;;;;;;5075397;28;20382;-71
2022/01/03 06:12:56;;;;;;;33.42;9.82;;;8.30;99.90;;;;;;5077906;28;20039;-71
2022/01/03 06:15:24;;;;;;;23.38;9.20;;;8.30;99.90;;;;;;5077446;28;20090;-71
2022/01/03 06:17:51;;;;;;;24.55;6.97;;;8.30;99.90;;;;;;5077312;28;20055;-71
2022/01/03 06:20:17;;;;;;;29.90;9.68;;;8.30;99.90;;;;;;5083211;28;20040;-71
2022/01/03 06:22:43;;;;;;;38.42;10.30;;;8.30;99.90;;;;;;5079630;28;20386;-71
2022/01/03 06:25:10;;;;;;;33.72;9.48;;;8.30;99.90;;;;;;5078550;28;20040;-71
2022/01/03 06:27:37;;;;;;;25.88;8.20;;;8.30;99.90;;;;;;5081250;28;20186;-71
2022/01/03 06:30:05;;;;;;;31.63;9.35;;;8.30;99.90;;;;;;5077534;28;20139;-71
2022/01/03 06:32:31;;;;;;;28.45;9.70;;;8.30;99.90;;;;;;5083943;28;20040;-71
2022/01/03 06:34:57;;;;;;;23.67;7.82;;;8.30;99.90;;;;;;5076476;28;20495;-71
2022/01/03 06:37:23;;;;;;;28.77;9.38;;;8.30;99.90;;;;;;5075577;28;20068;-70
2022/01/03 06:39:49;;;;;;;25.13;7.88;;;8.30;99.90;;;;;;5075868;28;20047;-71
2022/01/03 06:42:14;;;;;;;26.40;8.60;;;8.30;99.90;;;;;;5051484;28;20792;-71
2022/01/03 06:44:43;;;;;;;27.70;8.10;;;8.30;99.90;;;;;;5082363;28;20501;-71
2022/01/03 06:47:09;;;;;;;29.75;10.35;;;8.20;99.90;;;;;;5067190;28;20076;-71
2022/01/03 06:49:35;;;;;;;28.92;8.25;;;8.30;99.90;;;;;;5082792;28;20670;-71
2022/01/03 06:52:01;;;;;;;29.73;8.02;;;8.30;99.90;;;;;;5080539;28;20051;-71
2022/01/03 06:54:26;;;;;;;24.33;7.68;;;8.30;99.90;;;;;;5075515;28;20401;-71
2022/01/03 06:56:52;;;;;;;40.35;8.63;;;8.30;99.90;;;;;;5081528;28;20113;-71
2022/01/03 06:59:18;;;;;;;21.85;7.75;;;8.30;99.90;;;;;;5078047;28;20087;-71
2022/01/03 07:01:44;;;;;;;24.02;10.23;;;8.30;99.90;;;;;;5075255;28;20318;-71
2022/01/03 07:04:09;;;;;;;29.35;9.35;;;8.30;99.90;;;;;;5077842;28;20314;-71
2022/01/03 07:06:36;;;;;;;21.60;7.45;;;8.30;99.90;;;;;;5075623;28;20439;-71
2022/01/03 07:09:05;;;;;;;24.17;7.47;;;8.30;99.90;;;;;;5079565;28;20147;-71
2022/01/03 07:11:31;;;;;;;30.45;7.93;;;8.30;99.90;;;;;;5080223;28;20044;-71
2022/01/03 07:18:55;;;;;;;28.35;8.02;;;8.20;99.90;;;;;;5077179;28;20620;-71
2022/01/03 07:19:27;;;;;;;32.38;8.57;;;8.30;99.90;;;;;;5077177;28;20084;-71
2022/01/03 07:21:53;;;;;;;25.75;9.93;;;8.30;99.90;;;;;;5078867;28;20545;-70
2022/01/03 07:24:19;;;;;;;36.80;9.30;;;8.30;99.90;;;;;;5078705;28;20150;-71
2022/01/03 07:26:44;;;;;;;25.77;8.73;;;8.30;99.90;;;;;;5075531;28;20043;-71
2022/01/03 07:29:10;;;;;;;30.70;9.70;;;8.30;99.90;;;;;;5062638;28;20455;-70
2022/01/03 07:31:36;;;;;;;31.77;8.60;;;8.30;99.90;;;;;;5080397;28;20335;-71
2022/01/03 07:34:02;;;;;;;27.10;7.57;;;8.30;99.90;;;;;;5060392;28;20457;-71
2022/01/03 07:36:28;;;;;;;30.25;9.50;;;8.30;99.90;;;;;;5082951;28;20513;-71
2022/01/03 07:38:54;;;;;;;24.65;7.68;;;8.30;99.90;;;;;;5075473;28;20638;-70
2022/01/03 07:41:19;;;;;;;34.55;8.23;;;8.30;99.90;;;;;;5079264;28;20416;-71
2022/01/03 07:43:45;;;;;;;32.65;8.57;;;8.30;99.90;;;;;;5078723;28;20065;-71
2022/01/03 07:46:12;;;;;;;27.25;7.55;;;8.30;99.90;;;;;;5073616;28;20053;-71
2022/01/03 07:48:38;;;;;;;22.42;7.32;;;8.30;99.90;;;;;;5081994;28;20060;-71
2022/01/03 07:51:04;;;;;;;24.48;7.93;;;8.30;99.90;;;;;;5079050;28;20042;-71
2022/01/03 07:53:30;;;;;;;21.55;8.05;;;8.30;99.90;;;;;;5079279;28;20473;-70
2022/01/03 07:55:56;;;;;;;32.08;8.65;;;8.30;99.90;;;;;;5062100;28;20100;-71
2022/01/03 07:58:22;;;;;;;24.90;7.95;;;8.30;99.90;;;;;;5033038;28;20181;-71
2022/01/03 08:00:49;;;;;;;29.15;8.13;;;8.30;99.90;;;;;;5074508;28;20510;-71
2022/01/03 08:03:15;;;;;;;28.10;8.25;;;8.30;99.90;;;;;;5055121;28;20606;-70
2022/01/03 08:05:41;;;;;;;29.42;9.35;;;8.30;99.90;;;;;;5076066;28;20398;-71
2022/01/03 08:08:09;;;;;;;26.30;8.07;;;8.30;99.90;;;;;;5073662;28;20040;-71
2022/01/03 08:10:37;;;;;;;38.47;8.98;;;8.30;99.90;;;;;;5074819;28;20081;-71
2022/01/03 08:13:03;;;;;;;23.58;8.65;;;8.30;99.90;;;;;;5073806;28;20142;-70
2022/01/03 08:15:29;;;;;;;30.65;9.32;;;8.30;99.90;;;;;;5069006;28;20056;-70
2022/01/03 08:17:54;;;;;;;30.98;9.02;;;8.30;99.90;;;;;;5058099;28;20587;-70
2022/01/03 08:20:20;;;;;;;26.75;8.63;;;8.30;99.90;;;;;;5070797;28;20540;-71
2022/01/03 08:22:46;;;;;;;24.60;7.57;;;8.30;99.90;;;;;;5056036;28;20509;-70
2022/01/03 08:25:12;;;;;;;33.03;10.65;;;8.30;99.90;;;;;;5070385;28;20044;-70
2022/01/03 08:27:38;;;;;;;23.15;8.38;;;8.30;99.90;;;;;;5071080;28;20119;-71
2022/01/03 08:30:04;;;;;;;23.40;7.70;;;8.30;99.90;;;;;;5073326;28;20035;-70
2022/01/03 08:32:30;;;;;;;25.88;8.05;;;8.30;99.90;;;;;;5070832;28;20487;-71
2022/01/03 08:34:56;;;;;;;29.55;7.93;;;8.40;99.90;;;;;;5058720;28;20036;-71
2022/01/03 08:37:21;;;;;;;24.20;8.00;;;8.40;99.90;;;;;;5057293;28;20043;-71
2022/01/03 08:39:47;;;;;;;17.75;8.38;;;8.40;99.90;;;;;;5068740;28;20028;-70
2022/01/03 08:42:13;;;;;;;30.77;9.23;;;8.40;99.90;;;;;;5040795;28;20291;-70
2022/01/03 08:44:39;;;;;;;18.45;7.35;;;8.40;99.90;;;;;;5071577;28;20477;-71
2022/01/03 08:47:06;;;;;;;27.15;8.95;;;8.40;99.90;;;;;;5056051;28;20055;-71
2022/01/03 08:49:32;;;;;;;27.23;8.60;;;8.50;99.90;;;;;;5071045;28;20048;-71
2022/01/03 08:52:00;;;;;;;33.60;9.73;;;8.40;99.90;;;;;;5070433;28;20489;-71
2022/01/03 08:54:25;;;;;;;19.55;7.38;;;8.50;99.90;;;;;;5072865;28;20042;-71
2022/01/03 08:56:51;;;;;;;40.63;9.80;;;8.50;99.90;;;;;;5068336;28;20048;-71
2022/01/03 08:59:18;;;;;;;30.23;8.35;;;8.50;99.90;;;;;;5070870;28;20052;-71
2022/01/03 09:01:44;;;;;;;33.05;8.02;;;8.50;99.90;;;;;;5072328;28;20056;-71
2022/01/03 09:04:11;;;;;;;21.90;8.60;;;8.60;99.90;;;;;;5061749;28;20646;-71
2022/01/03 09:06:36;;;;;;;38.20;8.98;;;8.60;99.90;;;;;;5071255;28;20040;-71
2022/01/03 09:09:05;;;;;;;22.17;8.27;;;8.60;99.90;;;;;;5047004;28;20082;-71
2022/01/03 09:11:31;;;;;;;20.25;7.55;;;8.60;99.90;;;;;;5074862;28;20389;-71
2022/01/03 09:13:57;;;;;;;29.77;8.05;;;8.60;99.90;;;;;;5071574;28;20629;-71
2022/01/03 09:16:23;;;;;;;24.75;8.77;;;8.60;99.90;;;;;;5070990;28;20092;-71
2022/01/03 09:18:50;;;;;;;24.77;8.15;;;8.60;99.90;;;;;;5072886;28;20048;-72
2022/01/03 09:21:16;;;;;;;25.67;10.15;;;8.60;99.90;;;;;;5070577;28;20496;-71
2022/01/03 09:23:47;;;;;;;31.92;9.30;;;8.70;99.90;;;;;;5072516;28;20546;-71
2022/01/03 09:28:58;;;;;;;21.75;8.82;;;8.70;99.90;;;;;;5072555;28;20044;-71
2022/01/03 09:31:35;;;;;;;26.95;8.23;;;8.70;99.90;;;;;;5073215;28;20093;-71
2022/01/03 09:34:03;;;;;;;25.48;8.05;;;8.70;99.90;;;;;;5070126;28;20055;-71
2022/01/03 09:36:31;;;;;;;28.27;8.13;;;8.80;99.90;;;;;;5060443;28;20044;-71
2022/01/03 09:38:58;;;;;;;34.42;9.48;;;8.80;99.90;;;;;;5068907;28;20553;-71
2022/01/03 09:41:26;;;;;;;29.75;8.65;;;8.80;99.90;;;;;;5071970;28;20679;-71
2022/01/03 09:43:55;;;;;;;21.42;7.03;;;8.90;99.90;;;;;;5058038;28;20130;-71
2022/01/03 09:46:27;;;;;;;35.63;9.05;;;8.90;99.90;;;;;;5069752;28;20037;-71
2022/01/03 09:48:55;;;;;;;15.60;6.45;;;8.90;99.90;;;;;;5072616;28;20087;-71
2022/01/03 09:51:29;;;;;;;21.30;6.20;;;9.00;99.90;;;;;;5054048;28;20076;-71
2022/01/03 09:53:59;;;;;;;26.67;8.30;;;9.00;99.90;;;;;;5071433;28;20045;-71
2022/01/03 09:56:27;;;;;;;25.30;8.68;;;9.00;99.90;;;;;;5072446;28;20218;-71
2022/01/03 09:58:53;;;;;;;23.45;6.75;;;9.10;99.90;;;;;;5067775;28;20060;-71
2022/01/03 10:01:19;;;;;;;21.45;7.25;;;9.10;99.90;;;;;;5074660;28;20040;-71
2022/01/03 10:03:49;;;;;;;21.45;6.53;;;9.10;99.90;;;;;;5039937;28;20078;-71
2022/01/03 10:06:17;;;;;;;18.70;6.25;;;9.10;99.90;;;;;;5075299;28;20497;-71
2022/01/03 10:08:43;;;;;;;26.58;7.43;;;9.20;99.90;;;;;;5076156;28;20040;-71
2022/01/03 10:11:09;;;;;;;28.15;8.05;;;9.20;99.90;;;;;;5073087;28;20040;-70
2022/01/03 10:13:35;;;;;;;21.35;6.28;;;9.30;99.90;;;;;;5079216;28;20121;-71
2022/01/03 10:16:01;;;;;;;20.55;7.50;;;9.30;99.90;;;;;;5075382;28;20043;-71
2022/01/03 10:18:27;;;;;;;28.50;7.05;;;9.30;99.90;;;;;;5076688;28;20044;-71
2022/01/03 10:20:55;;;;;;;29.48;6.93;;;9.40;99.90;;;;;;5076751;28;20052;-71
2022/01/03 10:23:21;;;;;;;18.45;7.50;;;9.40;99.90;;;;;;5070924;28;20040;-71
2022/01/03 10:25:47;;;;;;;20.90;8.00;;;9.40;99.90;;;;;;5078322;28;20047;-71
2022/01/03 10:28:28;;;;;;;22.40;7.10;;;9.50;99.90;;;;;;5076586;28;20035;-71
2022/01/03 10:30:54;;;;;;;26.42;8.30;;;9.50;99.90;;;;;;5073579;28;20493;-71
2022/01/03 10:33:23;;;;;;;25.17;8.07;;;9.60;99.90;;;;;;5036262;28;20079;-71
2022/01/03 10:35:52;;;;;;;25.30;8.68;;;9.60;99.90;;;;;;5073568;28;20127;-70
2022/01/03 10:38:41;;;;;;;26.05;7.70;;;9.70;99.90;;;;;;5076594;28;20232;-71
2022/01/03 10:41:22;;;;;;;21.17;7.70;;;9.70;99.90;;;;;;5073234;28;20090;-71
2022/01/03 10:43:53;;;;;;;26.48;8.20;;;9.80;99.90;;;;;;5074818;28;20271;-71
2022/01/03 10:46:24;;;;;;;17.20;7.00;;;9.80;99.90;;;;;;5077360;28;20509;-71
2022/01/03 10:48:51;;;;;;;21.95;6.78;;;9.80;99.90;;;;;;5073459;28;20049;-71
2022/01/03 10:51:26;;;;;;;21.90;6.97;;;9.90;99.90;;;;;;5078009;28;20427;-70
2022/01/03 10:53:55;;;;;;;18.15;7.30;;;9.90;99.90;;;;;;5075785;28;20411;-71
2022/01/03 10:56:35;;;;;;;26.33;7.72;;;9.90;99.90;;;;;;5073638;28;20035;-71
2022/01/03 10:59:30;;;;;;;18.38;7.05;;;9.90;99.90;;;;;;5075119;28;20063;-71
2022/01/03 11:02:01;;;;;;;15.68;6.35;;;10.00;99.90;;;;;;5076215;28;20055;-71
2022/01/03 11:13:22;;;;;;;25.48;6.47;;;10.20;99.90;;;;;;5072329;28;20075;-71
2022/01/03 11:16:03;;;;;;;16.85;6.47;;;10.30;99.90;;;;;;5077008;28;20084;-71
2022/01/03 11:18:29;;;;;;;23.98;7.45;;;10.50;99.90;;;;;;5076377;28;20048;-72
2022/01/03 11:21:14;;;;;;;33.95;8.43;;;10.70;99.90;;;;;;5074378;28;20149;-71
2022/01/03 11:24:00;;;;;;;20.17;7.70;;;10.80;99.90;;;;;;5077931;28;20078;-71
2022/01/03 11:26:27;;;;;;;25.20;7.78;;;11.00;99.90;;;;;;5070942;28;20101;-71
2022/01/03 11:28:53;;;;;;;24.13;7.55;;;11.00;99.90;;;;;;5059151;28;20168;-72
2022/01/03 11:31:21;;;;;;;26.15;7.43;;;11.10;99.90;;;;;;5076979;28;20044;-71
2022/01/03 11:33:49;;;;;;;25.17;6.80;;;11.40;99.90;;;;;;5072290;28;20059;-71
2022/01/03 11:36:22;;;;;;;27.20;8.25;;;11.70;99.90;;;;;;5075219;28;20048;-71
2022/01/03 11:38:48;;;;;;;25.15;6.80;;;12.20;99.90;;;;;;5077845;28;20053;-71
2022/01/03 11:41:15;;;;;;;44.83;8.68;;;12.60;99.90;;;;;;5075857;28;20036;-71
2022/01/03 11:43:43;;;;;;;21.40;5.65;;;12.90;99.90;;;;;;5080083;28;20044;-71
2022/01/03 11:46:09;;;;;;;23.38;7.18;;;13.30;99.90;;;;;;5072698;28;20045;-71
2022/01/03 11:48:35;;;;;;;21.77;7.00;;;13.60;99.90;;;;;;5063975;28;20055;-71
2022/01/03 11:51:08;;;;;;;18.67;5.32;;;13.90;99.90;;;;;;5072834;28;20330;-71
2022/01/03 11:53:37;;;;;;;19.17;7.35;;;14.20;99.90;;;;;;5075739;28;20326;-71
2022/01/03 11:56:09;;;;;;;20.60;6.20;;;14.00;99.90;;;;;;5076693;28;20096;-71
2022/01/03 12:04:29;;;;;;;22.65;7.18;;;12.60;99.90;;;;;;5078432;28;20155;-71
2022/01/03 12:07:06;;;;;;;22.15;7.90;;;12.60;99.90;;;;;;5070606;28;20199;-71
2022/01/03 12:09:33;;;;;;;17.45;6.80;;;12.60;99.90;;;;;;5073877;28;20056;-71
2022/01/03 12:12:00;;;;;;;24.85;6.32;;;12.90;99.90;;;;;;5078205;28;20497;-71
2022/01/03 12:14:43;;;;;;;22.25;6.22;;;13.00;99.90;;;;;;5075732;28;20439;-71
2022/01/03 12:17:11;;;;;;;18.73;6.90;;;13.20;99.90;;;;;;5029501;28;20047;-71
2022/01/03 12:19:43;;;;;;;23.88;6.28;;;13.10;99.90;;;;;;5078938;28;20078;-72
2022/01/03 12:22:13;;;;;;;16.58;5.65;;;13.10;99.90;;;;;;5074615;28;20048;-71
2022/01/03 12:24:41;;;;;;;16.30;5.80;;;13.40;99.90;;;;;;5047677;28;20044;-71
2022/01/03 12:27:14;;;;;;;19.70;6.25;;;13.40;99.90;;;;;;5077076;28;20052;-71
2022/01/03 12:29:55;;;;;;;19.20;6.13;;;13.30;99.90;;;;;;5077905;28;20124;-71
2022/01/03 12:32:41;;;;;;;22.30;7.95;;;13.00;99.90;;;;;;5079548;28;20051;-71
2022/01/03 12:35:22;;;;;;;18.05;7.28;;;12.80;99.90;;;;;;5075623;28;20047;-71
2022/01/03 12:37:54;;;;;;;18.95;6.60;;;12.50;99.90;;;;;;5076973;28;20043;-71
2022/01/03 12:40:25;;;;;;;20.27;7.00;;;12.10;99.90;;;;;;5079763;28;20040;-70
2022/01/03 12:42:53;;;;;;;25.15;8.00;;;11.80;99.90;;;;;;5065828;28;20048;-71
2022/01/03 12:45:32;;;;;;;24.35;7.13;;;11.70;99.90;;;;;;5078468;28;20114;-71
2022/01/03 12:48:10;;;;;;;19.33;6.60;;;11.80;99.90;;;;;;5078911;28;20636;-71
2022/01/03 12:50:52;;;;;;;21.73;6.97;;;12.00;99.90;;;;;;5073175;28;20512;-71
2022/01/03 12:53:27;;;;;;;16.33;6.82;;;12.30;99.90;;;;;;5078740;28;20048;-71
2022/01/03 12:56:07;;;;;;;21.05;6.53;;;12.20;99.90;;;;;;5076412;28;20066;-71
2022/01/03 12:58:33;;;;;;;22.60;6.80;;;12.20;99.90;;;;;;5075284;28;20041;-71
2022/01/03 13:01:06;;;;;;;30.67;7.70;;;12.20;99.90;;;;;;5078473;28;20440;-71
2022/01/03 13:03:52;;;;;;;19.23;6.00;;;12.20;99.90;;;;;;5074601;28;20085;-71
2022/01/03 13:06:26;;;;;;;22.30;7.07;;;12.20;99.90;;;;;;5058364;28;20037;-70
2022/01/03 13:08:54;;;;;;;22.17;6.20;;;12.30;99.90;;;;;;5078840;28;20632;-70
2022/01/03 13:11:32;;;;;;;21.80;7.65;;;12.40;99.90;;;;;;5074431;28;20055;-70
2022/01/03 13:14:09;;;;;;;21.30;7.25;;;12.60;99.90;;;;;;5073977;28;20501;-70
2022/01/03 13:16:38;;;;;;;22.63;7.70;;;12.60;99.90;;;;;;5078866;28;20044;-71